Terminal Aerodrome Forecast
Issued by NWS

Home | Current Version | Previous Version | Text Only | Print | Product List | Glossary On
Versions: 1 2 3 4 5 6 7 8 9 10 11 12 13 14 15 16 17 18 19 20 21 22 23 24 25 26 27 28 29 30 31
000
FTUS42 KCAE 181800 AAA
TAFCUB
TAF AMD
KCUB 181816Z 1818/1918 VRB04KT P6SM VCSH BKN040
      TEMPO 1819/1821 3SM SHRA OVC020
     FM190500 VRB03KT P6SM BKN009
     FM190900 12004KT 4SM -RA BR OVC006
     FM191400 15008KT 3SM SHRA OVC012=

USA.gov is the U.S. government's official web portal to all federal, state and local government web resources and services.